Lockbourne, Ohio
Current Conditions -  °F | °C
As of 5:35 PM on Tuesday 21 Oct 2014 (Local Time) from KLCK Reporting Station
Overcast Overcast  
Wind Chill: 44°   Ceiling: 3500
Heat Index: 48°   Visibility: 10mi
Dew Point: 42°   Wind: 12mph
Humidity: 77%   Direction: 350°N
Pressure: 30.06"   Gusts: NA
Location:  39.81°N, 82.97°W
Report Text: KLCK 212135Z AUTO 35010KT 10SM SCT022 BKN035 OVC044 09/05 A3006 RMK AO2 T00910053
Loading
Personal Weather Stations






























Interactive Weather Map New forecast layout! Learn more

10-Day Weather Forecast

Advertisements
Track Severe Weather on mobile